sensor_id;sensor_type;location;lat;lon;timestamp;pressure;altitude;pressure_sealevel;temperature;humidity
52855;BME280;38719;51.418;7.286;2023-07-09T00:00:47;100025.59;;;26.12;41.34
52855;BME280;38719;51.418;7.286;2023-07-09T00:03:15;100030.56;;;26.16;41.33
52855;BME280;38719;51.418;7.286;2023-07-09T00:05:46;100033.47;;;26.56;40.93
52855;BME280;38719;51.418;7.286;2023-07-09T00:08:24;100032.78;;;26.79;40.72
52855;BME280;38719;51.418;7.286;2023-07-09T00:10:53;100027.84;;;26.66;40.81
52855;BME280;38719;51.418;7.286;2023-07-09T00:13:21;100024.22;;;26.90;41.03
52855;BME280;38719;51.418;7.286;2023-07-09T00:15:49;100026.44;;;26.86;40.42
52855;BME280;38719;51.418;7.286;2023-07-09T00:18:17;100027.66;;;26.67;41.60
52855;BME280;38719;51.418;7.286;2023-07-09T00:20:45;100020.16;;;26.78;42.13
52855;BME280;38719;51.418;7.286;2023-07-09T00:23:15;100024.94;;;26.76;42.40
52855;BME280;38719;51.418;7.286;2023-07-09T00:25:46;100027.97;;;26.89;41.91
52855;BME280;38719;51.418;7.286;2023-07-09T00:28:15;100029.88;;;26.80;41.68
52855;BME280;38719;51.418;7.286;2023-07-09T00:30:43;100035.00;;;26.83;43.00
52855;BME280;38719;51.418;7.286;2023-07-09T00:33:13;100020.16;;;26.69;43.31
52855;BME280;38719;51.418;7.286;2023-07-09T00:35:41;100018.28;;;26.53;43.09
52855;BME280;38719;51.418;7.286;2023-07-09T00:38:13;100019.63;;;26.58;43.44
52855;BME280;38719;51.418;7.286;2023-07-09T00:40:48;100023.91;;;26.60;43.28
52855;BME280;38719;51.418;7.286;2023-07-09T00:43:16;100022.03;;;26.52;42.83
52855;BME280;38719;51.418;7.286;2023-07-09T00:45:44;100026.31;;;26.38;43.56
52855;BME280;38719;51.418;7.286;2023-07-09T00:48:14;100025.63;;;26.45;43.70
52855;BME280;38719;51.418;7.286;2023-07-09T00:50:48;100021.69;;;26.31;44.30
52855;BME280;38719;51.418;7.286;2023-07-09T00:53:19;100021.34;;;26.26;44.33
52855;BME280;38719;51.418;7.286;2023-07-09T00:55:59;100021.50;;;26.16;44.45
52855;BME280;38719;51.418;7.286;2023-07-09T00:58:30;100018.13;;;26.14;44.50
52855;BME280;38719;51.418;7.286;2023-07-09T01:01:02;100013.69;;;26.13;44.32
52855;BME280;38719;51.418;7.286;2023-07-09T01:03:34;100020.16;;;26.12;45.12
52855;BME280;38719;51.418;7.286;2023-07-09T01:06:05;100010.94;;;26.13;44.69
52855;BME280;38719;51.418;7.286;2023-07-09T01:08:35;100023.06;;;26.10;45.02
52855;BME280;38719;51.418;7.286;2023-07-09T01:11:04;100021.59;;;25.81;45.91
52855;BME280;38719;51.418;7.286;2023-07-09T01:13:35;100013.91;;;25.68;46.61
52855;BME280;38719;51.418;7.286;2023-07-09T01:16:06;100022.38;;;25.57;47.14
52855;BME280;38719;51.418;7.286;2023-07-09T01:18:34;100020.53;;;25.74;45.82
52855;BME280;38719;51.418;7.286;2023-07-09T01:21:08;100017.34;;;25.87;44.85
52855;BME280;38719;51.418;7.286;2023-07-09T01:23:42;100019.81;;;25.55;44.74
52855;BME280;38719;51.418;7.286;2023-07-09T01:26:11;100013.22;;;25.74;44.60
52855;BME280;38719;51.418;7.286;2023-07-09T01:28:39;100025.06;;;25.49;44.86
52855;BME280;38719;51.418;7.286;2023-07-09T01:31:08;100022.03;;;25.60;44.85
52855;BME280;38719;51.418;7.286;2023-07-09T01:33:35;100018.13;;;25.54;44.90
52855;BME280;38719;51.418;7.286;2023-07-09T01:36:07;100021.72;;;25.63;44.54
52855;BME280;38719;51.418;7.286;2023-07-09T01:38:35;100030.22;;;25.25;45.51
52855;BME280;38719;51.418;7.286;2023-07-09T01:41:03;100025.00;;;25.06;46.19
52855;BME280;38719;51.418;7.286;2023-07-09T01:43:30;100026.31;;;25.28;45.45
52855;BME280;38719;51.418;7.286;2023-07-09T01:45:58;100020.00;;;25.62;44.89
52855;BME280;38719;51.418;7.286;2023-07-09T01:48:27;100024.97;;;25.32;45.50
52855;BME280;38719;51.418;7.286;2023-07-09T01:50:54;100021.59;;;25.73;45.73
52855;BME280;38719;51.418;7.286;2023-07-09T01:53:26;100011.91;;;26.03;44.91
52855;BME280;38719;51.418;7.286;2023-07-09T01:55:53;100017.38;;;26.03;46.10
52855;BME280;38719;51.418;7.286;2023-07-09T01:58:21;100018.38;;;26.02;45.66
52855;BME280;38719;51.418;7.286;2023-07-09T02:00:51;100023.97;;;25.76;46.49
52855;BME280;38719;51.418;7.286;2023-07-09T02:03:18;100025.69;;;25.77;46.37
52855;BME280;38719;51.418;7.286;2023-07-09T02:05:46;100022.94;;;25.77;46.80
52855;BME280;38719;51.418;7.286;2023-07-09T02:08:13;100024.09;;;25.58;47.31
52855;BME280;38719;51.418;7.286;2023-07-09T02:10:44;100022.84;;;25.44;47.85
52855;BME280;38719;51.418;7.286;2023-07-09T02:13:12;100020.44;;;25.41;47.76
52855;BME280;38719;51.418;7.286;2023-07-09T02:15:40;100026.59;;;25.17;48.89
52855;BME280;38719;51.418;7.286;2023-07-09T02:18:09;100036.72;;;24.98;49.63
52855;BME280;38719;51.418;7.286;2023-07-09T02:20:37;100029.66;;;24.87;49.31
52855;BME280;38719;51.418;7.286;2023-07-09T02:23:05;100036.72;;;24.98;49.05
52855;BME280;38719;51.418;7.286;2023-07-09T02:25:33;100030.16;;;24.83;49.60
52855;BME280;38719;51.418;7.286;2023-07-09T02:28:02;100033.25;;;24.88;49.43
52855;BME280;38719;51.418;7.286;2023-07-09T02:30:30;100025.66;;;24.73;49.72
52855;BME280;38719;51.418;7.286;2023-07-09T02:32:57;100025.13;;;24.70;49.85
52855;BME280;38719;51.418;7.286;2023-07-09T02:35:25;100032.88;;;24.65;49.93
52855;BME280;38719;51.418;7.286;2023-07-09T02:37:52;100033.13;;;24.71;50.21
52855;BME280;38719;51.418;7.286;2023-07-09T02:40:20;100033.75;;;24.65;50.05
52855;BME280;38719;51.418;7.286;2023-07-09T02:42:48;100034.06;;;24.62;50.22
52855;BME280;38719;51.418;7.286;2023-07-09T02:45:16;100033.34;;;24.60;50.51
52855;BME280;38719;51.418;7.286;2023-07-09T02:47:44;100033.22;;;24.61;50.55
52855;BME280;38719;51.418;7.286;2023-07-09T02:50:12;100037.03;;;24.51;51.14
52855;BME280;38719;51.418;7.286;2023-07-09T02:52:40;100030.88;;;24.49;51.15
52855;BME280;38719;51.418;7.286;2023-07-09T02:55:09;100043.16;;;24.53;51.13
52855;BME280;38719;51.418;7.286;2023-07-09T02:57:36;100044.19;;;24.52;51.21
52855;BME280;38719;51.418;7.286;2023-07-09T03:00:05;100039.50;;;24.44;51.66
52855;BME280;38719;51.418;7.286;2023-07-09T03:02:34;100042.00;;;24.55;51.16
52855;BME280;38719;51.418;7.286;2023-07-09T03:05:02;100050.63;;;24.51;51.32
52855;BME280;38719;51.418;7.286;2023-07-09T03:07:29;100047.28;;;24.57;51.43
52855;BME280;38719;51.418;7.286;2023-07-09T03:09:57;100047.66;;;24.62;51.02
52855;BME280;38719;51.418;7.286;2023-07-09T03:12:24;100052.28;;;24.43;51.74
52855;BME280;38719;51.418;7.286;2023-07-09T03:14:52;100059.66;;;24.51;51.51
52855;BME280;38719;51.418;7.286;2023-07-09T03:17:19;100056.47;;;24.56;51.47
52855;BME280;38719;51.418;7.286;2023-07-09T03:19:48;100055.72;;;24.45;51.93
52855;BME280;38719;51.418;7.286;2023-07-09T03:22:16;100058.47;;;24.54;51.53
52855;BME280;38719;51.418;7.286;2023-07-09T03:24:43;100070.16;;;24.64;50.96
52855;BME280;38719;51.418;7.286;2023-07-09T03:27:11;100064.84;;;24.62;51.31
52855;BME280;38719;51.418;7.286;2023-07-09T03:29:39;100065.00;;;24.61;51.25
52855;BME280;38719;51.418;7.286;2023-07-09T03:32:06;100080.44;;;24.70;50.49
52855;BME280;38719;51.418;7.286;2023-07-09T03:34:34;100078.03;;;24.67;50.80
52855;BME280;38719;51.418;7.286;2023-07-09T03:37:03;100083.84;;;24.72;50.21
52855;BME280;38719;51.418;7.286;2023-07-09T03:39:31;100079.63;;;24.78;50.44
52855;BME280;38719;51.418;7.286;2023-07-09T03:41:58;100079.41;;;24.71;50.74
52855;BME280;38719;51.418;7.286;2023-07-09T03:44:26;100075.19;;;24.59;51.24
52855;BME280;38719;51.418;7.286;2023-07-09T03:46:53;100076.84;;;24.52;51.68
52855;BME280;38719;51.418;7.286;2023-07-09T03:49:21;100075.69;;;24.54;51.82
52855;BME280;38719;51.418;7.286;2023-07-09T03:51:49;100074.25;;;24.50;52.27
52855;BME280;38719;51.418;7.286;2023-07-09T03:54:17;100079.72;;;24.32;53.00
52855;BME280;38719;51.418;7.286;2023-07-09T03:56:45;100073.03;;;24.44;52.38
52855;BME280;38719;51.418;7.286;2023-07-09T03:59:13;100073.72;;;24.46;52.49
52855;BME280;38719;51.418;7.286;2023-07-09T04:01:40;100075.69;;;24.36;53.23
52855;BME280;38719;51.418;7.286;2023-07-09T04:04:12;100076.59;;;24.45;52.92
52855;BME280;38719;51.418;7.286;2023-07-09T04:06:40;100078.47;;;24.44;53.06
52855;BME280;38719;51.418;7.286;2023-07-09T04:09:08;100083.75;;;24.28;54.06
52855;BME280;38719;51.418;7.286;2023-07-09T04:11:37;100079.47;;;24.25;53.85
52855;BME280;38719;51.418;7.286;2023-07-09T04:14:04;100077.31;;;24.29;53.93
52855;BME280;38719;51.418;7.286;2023-07-09T04:16:33;100087.19;;;24.30;53.29
52855;BME280;38719;51.418;7.286;2023-07-09T04:19:01;100082.38;;;24.42;53.11
52855;BME280;38719;51.418;7.286;2023-07-09T04:21:29;100081.13;;;24.54;52.65
52855;BME280;38719;51.418;7.286;2023-07-09T04:23:56;100074.81;;;24.54;52.37
52855;BME280;38719;51.418;7.286;2023-07-09T04:26:24;100079.06;;;24.56;52.64
52855;BME280;38719;51.418;7.286;2023-07-09T04:28:53;100077.00;;;24.68;52.80
52855;BME280;38719;51.418;7.286;2023-07-09T04:31:20;100076.59;;;24.63;53.33
52855;BME280;38719;51.418;7.286;2023-07-09T04:33:48;100074.28;;;24.68;53.14
52855;BME280;38719;51.418;7.286;2023-07-09T04:36:15;100081.19;;;24.81;52.47
52855;BME280;38719;51.418;7.286;2023-07-09T04:38:43;100083.44;;;24.85;52.27
52855;BME280;38719;51.418;7.286;2023-07-09T04:41:10;100080.38;;;24.88;52.20
52855;BME280;38719;51.418;7.286;2023-07-09T04:43:38;100082.47;;;24.94;52.65
52855;BME280;38719;51.418;7.286;2023-07-09T04:46:07;100084.19;;;24.95;53.25
52855;BME280;38719;51.418;7.286;2023-07-09T04:48:34;100082.81;;;24.91;53.66
52855;BME280;38719;51.418;7.286;2023-07-09T04:51:02;100082.31;;;24.96;53.68
52855;BME280;38719;51.418;7.286;2023-07-09T04:53:30;100087.13;;;25.02;53.03
52855;BME280;38719;51.418;7.286;2023-07-09T04:55:57;100078.16;;;25.10;53.41
52855;BME280;38719;51.418;7.286;2023-07-09T04:58:25;100081.72;;;25.10;53.51
52855;BME280;38719;51.418;7.286;2023-07-09T05:00:56;100083.06;;;25.06;54.56
52855;BME280;38719;51.418;7.286;2023-07-09T05:03:26;100087.00;;;25.12;54.22
52855;BME280;38719;51.418;7.286;2023-07-09T05:05:53;100083.13;;;25.15;54.03
52855;BME280;38719;51.418;7.286;2023-07-09T05:08:21;100086.22;;;25.20;53.65
52855;BME280;38719;51.418;7.286;2023-07-09T05:10:51;100086.06;;;25.21;54.21
52855;BME280;38719;51.418;7.286;2023-07-09T05:13:19;100094.72;;;25.17;55.85
52855;BME280;38719;51.418;7.286;2023-07-09T05:15:47;100087.28;;;25.27;54.07
52855;BME280;38719;51.418;7.286;2023-07-09T05:18:17;100092.16;;;24.89;52.08
52855;BME280;38719;51.418;7.286;2023-07-09T05:20:47;100089.38;;;25.07;51.91
52855;BME280;38719;51.418;7.286;2023-07-09T05:23:15;100089.31;;;25.25;50.80
52855;BME280;38719;51.418;7.286;2023-07-09T05:25:42;100096.75;;;25.41;52.21
52855;BME280;38719;51.418;7.286;2023-07-09T05:28:10;100096.66;;;25.59;50.87
52855;BME280;38719;51.418;7.286;2023-07-09T05:30:41;100094.56;;;25.45;50.20
52855;BME280;38719;51.418;7.286;2023-07-09T05:33:08;100098.19;;;25.27;50.37
52855;BME280;38719;51.418;7.286;2023-07-09T05:35:36;100097.03;;;25.30;50.54
52855;BME280;38719;51.418;7.286;2023-07-09T05:38:05;100098.09;;;25.37;49.95
52855;BME280;38719;51.418;7.286;2023-07-09T05:40:32;100090.25;;;25.68;48.94
52855;BME280;38719;51.418;7.286;2023-07-09T05:43:00;100098.31;;;25.86;48.72
52855;BME280;38719;51.418;7.286;2023-07-09T05:45:27;100087.50;;;25.68;49.07
52855;BME280;38719;51.418;7.286;2023-07-09T05:47:55;100091.25;;;25.67;49.26
52855;BME280;38719;51.418;7.286;2023-07-09T05:50:22;100087.22;;;25.80;48.76
52855;BME280;38719;51.418;7.286;2023-07-09T05:52:50;100099.97;;;25.71;49.17
52855;BME280;38719;51.418;7.286;2023-07-09T05:55:19;100097.94;;;25.73;49.10
52855;BME280;38719;51.418;7.286;2023-07-09T05:57:46;100099.97;;;25.71;49.31
52855;BME280;38719;51.418;7.286;2023-07-09T06:00:15;100096.66;;;25.59;49.62
52855;BME280;38719;51.418;7.286;2023-07-09T06:02:42;100101.97;;;25.61;49.44
52855;BME280;38719;51.418;7.286;2023-07-09T06:05:10;100105.28;;;25.81;49.09
52855;BME280;38719;51.418;7.286;2023-07-09T06:07:38;100104.66;;;25.95;48.76
52855;BME280;38719;51.418;7.286;2023-07-09T06:10:07;100110.97;;;25.96;49.12
52855;BME280;38719;51.418;7.286;2023-07-09T06:12:37;100111.88;;;25.70;49.84
52855;BME280;38719;51.418;7.286;2023-07-09T06:15:05;100113.00;;;25.51;50.77
52855;BME280;38719;51.418;7.286;2023-07-09T06:17:33;100113.13;;;25.75;50.22
52855;BME280;38719;51.418;7.286;2023-07-09T06:20:01;100106.38;;;26.04;49.52
52855;BME280;38719;51.418;7.286;2023-07-09T06:22:28;100094.63;;;26.04;48.95
52855;BME280;38719;51.418;7.286;2023-07-09T06:24:56;100102.03;;;26.20;49.74
52855;BME280;38719;51.418;7.286;2023-07-09T06:27:23;100108.50;;;26.27;49.31
52855;BME280;38719;51.418;7.286;2023-07-09T06:29:52;100109.91;;;26.31;49.43
52855;BME280;38719;51.418;7.286;2023-07-09T06:32:20;100104.41;;;26.23;49.60
52855;BME280;38719;51.418;7.286;2023-07-09T06:34:47;100112.56;;;26.06;50.11
52855;BME280;38719;51.418;7.286;2023-07-09T06:37:15;100112.69;;;25.97;50.45
52855;BME280;38719;51.418;7.286;2023-07-09T06:39:42;100104.25;;;26.33;49.38
52855;BME280;38719;51.418;7.286;2023-07-09T06:42:10;100105.09;;;26.25;49.71
52855;BME280;38719;51.418;7.286;2023-07-09T06:44:38;100105.47;;;26.38;49.58
52855;BME280;38719;51.418;7.286;2023-07-09T06:47:07;100109.06;;;26.55;49.91
52855;BME280;38719;51.418;7.286;2023-07-09T06:49:35;100100.38;;;26.77;48.95
52855;BME280;38719;51.418;7.286;2023-07-09T06:52:02;100114.22;;;26.92;48.53
52855;BME280;38719;51.418;7.286;2023-07-09T06:54:30;100110.28;;;26.94;48.62
52855;BME280;38719;51.418;7.286;2023-07-09T06:56:57;100109.44;;;26.94;49.30
52855;BME280;38719;51.418;7.286;2023-07-09T06:59:25;100113.00;;;26.78;49.29
52855;BME280;38719;51.418;7.286;2023-07-09T07:01:52;100107.19;;;26.97;49.32
52855;BME280;38719;51.418;7.286;2023-07-09T07:04:21;100110.63;;;26.99;48.89
52855;BME280;38719;51.418;7.286;2023-07-09T07:06:49;100115.59;;;27.04;48.71
52855;BME280;38719;51.418;7.286;2023-07-09T07:09:16;100109.25;;;27.03;48.65
52855;BME280;38719;51.418;7.286;2023-07-09T07:11:44;100113.19;;;27.01;49.07
52855;BME280;38719;51.418;7.286;2023-07-09T07:14:12;100105.50;;;27.13;49.38
52855;BME280;38719;51.418;7.286;2023-07-09T07:16:39;100108.59;;;26.85;49.57
52855;BME280;38719;51.418;7.286;2023-07-09T07:19:07;100116.75;;;27.01;49.66
52855;BME280;38719;51.418;7.286;2023-07-09T07:21:37;100112.25;;;27.33;48.95
52855;BME280;38719;51.418;7.286;2023-07-09T07:24:05;100114.16;;;27.41;49.85
52855;BME280;38719;51.418;7.286;2023-07-09T07:26:33;100114.34;;;27.23;49.23
52855;BME280;38719;51.418;7.286;2023-07-09T07:29:01;100106.59;;;27.51;49.02
52855;BME280;38719;51.418;7.286;2023-07-09T07:31:28;100112.41;;;27.57;48.77
52855;BME280;38719;51.418;7.286;2023-07-09T07:33:56;100110.41;;;27.26;49.52
52855;BME280;38719;51.418;7.286;2023-07-09T07:36:23;100103.91;;;27.27;49.63
52855;BME280;38719;51.418;7.286;2023-07-09T07:38:58;100107.34;;;27.21;50.76
52855;BME280;38719;51.418;7.286;2023-07-09T07:41:25;100108.53;;;27.43;49.74
52855;BME280;38719;51.418;7.286;2023-07-09T07:43:53;100111.91;;;27.45;49.26
52855;BME280;38719;51.418;7.286;2023-07-09T07:46:20;100107.41;;;27.69;48.86
52855;BME280;38719;51.418;7.286;2023-07-09T07:48:48;100112.88;;;27.69;49.10
52855;BME280;38719;51.418;7.286;2023-07-09T07:51:16;100107.22;;;27.70;48.88
52855;BME280;38719;51.418;7.286;2023-07-09T07:53:43;100117.50;;;28.08;47.91
52855;BME280;38719;51.418;7.286;2023-07-09T07:56:12;100109.50;;;28.29;47.85
52855;BME280;38719;51.418;7.286;2023-07-09T07:58:39;100109.81;;;28.35;47.42
52855;BME280;38719;51.418;7.286;2023-07-09T08:01:07;100111.22;;;28.30;47.53
52855;BME280;38719;51.418;7.286;2023-07-09T08:03:35;100112.91;;;28.31;47.31
52855;BME280;38719;51.418;7.286;2023-07-09T08:06:02;100106.16;;;28.42;47.40
52855;BME280;38719;51.418;7.286;2023-07-09T08:08:30;100107.81;;;28.52;47.28
52855;BME280;38719;51.418;7.286;2023-07-09T08:11:02;100103.16;;;28.52;47.42
52855;BME280;38719;51.418;7.286;2023-07-09T08:13:33;100100.72;;;28.57;47.46
52855;BME280;38719;51.418;7.286;2023-07-09T08:16:01;100098.25;;;28.71;46.88
52855;BME280;38719;51.418;7.286;2023-07-09T08:18:29;100100.88;;;28.87;46.36
52855;BME280;38719;51.418;7.286;2023-07-09T08:20:58;100099.06;;;28.94;46.58
52855;BME280;38719;51.418;7.286;2023-07-09T08:23:25;100098.53;;;28.99;46.85
52855;BME280;38719;51.418;7.286;2023-07-09T08:25:53;100100.25;;;28.77;46.39
52855;BME280;38719;51.418;7.286;2023-07-09T08:28:21;100089.47;;;28.99;46.69
52855;BME280;38719;51.418;7.286;2023-07-09T08:30:51;100098.25;;;29.09;45.72
52855;BME280;38719;51.418;7.286;2023-07-09T08:33:19;100092.06;;;29.30;45.18
52855;BME280;38719;51.418;7.286;2023-07-09T08:35:48;100098.97;;;29.41;44.24
52855;BME280;38719;51.418;7.286;2023-07-09T08:38:16;100099.16;;;29.54;44.31
52855;BME280;38719;51.418;7.286;2023-07-09T08:40:53;100097.66;;;29.67;44.00
52855;BME280;38719;51.418;7.286;2023-07-09T08:43:29;100096.00;;;29.72;44.05
52855;BME280;38719;51.418;7.286;2023-07-09T08:46:07;100083.91;;;29.82;43.74
52855;BME280;38719;51.418;7.286;2023-07-09T08:48:41;100081.66;;;29.70;43.15
52855;BME280;38719;51.418;7.286;2023-07-09T08:51:14;100080.47;;;29.80;43.11
52855;BME280;38719;51.418;7.286;2023-07-09T08:53:54;100076.03;;;29.94;43.42
52855;BME280;38719;51.418;7.286;2023-07-09T08:56:25;100081.03;;;30.05;42.87
52855;BME280;38719;51.418;7.286;2023-07-09T08:58:55;100077.06;;;30.07;42.90
52855;BME280;38719;51.418;7.286;2023-07-09T09:01:27;100076.97;;;30.01;42.96
52855;BME280;38719;51.418;7.286;2023-07-09T09:04:00;100067.84;;;30.15;42.38
52855;BME280;38719;51.418;7.286;2023-07-09T09:06:31;100072.69;;;30.35;42.70
52855;BME280;38719;51.418;7.286;2023-07-09T09:09:05;100069.94;;;30.57;42.33
52855;BME280;38719;51.418;7.286;2023-07-09T09:11:43;100070.66;;;30.44;42.44
52855;BME280;38719;51.418;7.286;2023-07-09T09:14:26;100068.41;;;30.11;42.86
52855;BME280;38719;51.418;7.286;2023-07-09T09:16:56;100068.91;;;30.58;41.57
52855;BME280;38719;51.418;7.286;2023-07-09T09:19:27;100064.44;;;30.78;41.33
52855;BME280;38719;51.418;7.286;2023-07-09T09:21:58;100065.16;;;30.87;41.25
52855;BME280;38719;51.418;7.286;2023-07-09T09:24:35;100059.28;;;30.97;40.97
52855;BME280;38719;51.418;7.286;2023-07-09T09:27:03;100063.25;;;31.16;42.67
52855;BME280;38719;51.418;7.286;2023-07-09T09:29:31;100050.63;;;31.28;42.93
52855;BME280;38719;51.418;7.286;2023-07-09T09:32:16;100062.53;;;31.35;42.29
52855;BME280;38719;51.418;7.286;2023-07-09T09:34:45;100064.69;;;31.47;41.71
52855;BME280;38719;51.418;7.286;2023-07-09T09:37:23;100060.53;;;31.58;41.58
52855;BME280;38719;51.418;7.286;2023-07-09T09:39:51;100059.34;;;31.67;40.94
52855;BME280;38719;51.418;7.286;2023-07-09T09:42:38;100056.44;;;31.82;40.51
52855;BME280;38719;51.418;7.286;2023-07-09T09:45:11;100060.91;;;31.48;40.54
52855;BME280;38719;51.418;7.286;2023-07-09T09:47:42;100054.06;;;31.79;40.10
52855;BME280;38719;51.418;7.286;2023-07-09T09:50:13;100059.88;;;31.14;39.02
52855;BME280;38719;51.418;7.286;2023-07-09T09:52:41;100054.22;;;31.64;38.04
52855;BME280;38719;51.418;7.286;2023-07-09T09:55:11;100061.13;;;31.95;37.55
52855;BME280;38719;51.418;7.286;2023-07-09T09:57:39;100057.56;;;32.14;37.74
52855;BME280;38719;51.418;7.286;2023-07-09T10:00:13;100056.53;;;32.15;37.76
52855;BME280;38719;51.418;7.286;2023-07-09T10:02:44;100056.06;;;32.05;37.28
52855;BME280;38719;51.418;7.286;2023-07-09T10:05:13;100054.66;;;32.36;37.38
52855;BME280;38719;51.418;7.286;2023-07-09T10:07:44;100052.75;;;32.43;37.10
52855;BME280;38719;51.418;7.286;2023-07-09T10:10:19;100048.94;;;32.44;36.67
52855;BME280;38719;51.418;7.286;2023-07-09T10:12:51;100046.19;;;32.44;35.95
52855;BME280;38719;51.418;7.286;2023-07-09T10:15:29;100038.78;;;32.38;36.74
52855;BME280;38719;51.418;7.286;2023-07-09T10:18:02;100046.41;;;32.29;36.58
52855;BME280;38719;51.418;7.286;2023-07-09T10:20:35;100049.38;;;32.55;35.90
52855;BME280;38719;51.418;7.286;2023-07-09T10:23:14;100046.00;;;32.93;35.86
52855;BME280;38719;51.418;7.286;2023-07-09T10:25:48;100046.19;;;32.98;35.47
52855;BME280;38719;51.418;7.286;2023-07-09T10:28:35;100035.97;;;33.19;35.11
52855;BME280;38719;51.418;7.286;2023-07-09T10:31:13;100034.47;;;33.36;33.23
52855;BME280;38719;51.418;7.286;2023-07-09T10:33:55;100028.06;;;33.42;34.30
52855;BME280;38719;51.418;7.286;2023-07-09T10:36:39;100024.72;;;33.27;34.12
52855;BME280;38719;51.418;7.286;2023-07-09T10:39:11;100025.53;;;33.48;32.66
52855;BME280;38719;51.418;7.286;2023-07-09T10:41:43;100029.03;;;33.68;32.55
52855;BME280;38719;51.418;7.286;2023-07-09T10:44:16;100024.16;;;33.64;32.21
52855;BME280;38719;51.418;7.286;2023-07-09T10:46:47;100013.88;;;33.91;32.51
52855;BME280;38719;51.418;7.286;2023-07-09T10:49:18;100009.91;;;33.73;32.09
52855;BME280;38719;51.418;7.286;2023-07-09T10:51:49;100021.56;;;33.17;32.47
52855;BME280;38719;51.418;7.286;2023-07-09T10:54:22;100012.69;;;33.67;31.77
52855;BME280;38719;51.418;7.286;2023-07-09T10:56:56;100015.03;;;34.09;31.68
52855;BME280;38719;51.418;7.286;2023-07-09T10:59:28;100020.03;;;33.48;30.88
52855;BME280;38719;51.418;7.286;2023-07-09T11:02:04;100013.53;;;33.67;31.40
52855;BME280;38719;51.418;7.286;2023-07-09T11:04:44;100012.66;;;33.73;30.96
52855;BME280;38719;51.418;7.286;2023-07-09T11:07:18;100017.09;;;34.20;31.26
52855;BME280;38719;51.418;7.286;2023-07-09T11:09:48;100012.28;;;34.41;30.50
52855;BME280;38719;51.418;7.286;2023-07-09T11:12:29;100021.75;;;33.87;31.02
52855;BME280;38719;51.418;7.286;2023-07-09T11:15:02;100015.16;;;33.82;31.19
52855;BME280;38719;51.418;7.286;2023-07-09T11:17:30;100018.31;;;34.24;30.28
52855;BME280;38719;51.418;7.286;2023-07-09T11:20:07;100017.00;;;34.01;30.20
52855;BME280;38719;51.418;7.286;2023-07-09T11:22:37;99994.84;;;34.40;30.43
52855;BME280;38719;51.418;7.286;2023-07-09T11:25:08;100011.97;;;34.23;30.02
52855;BME280;38719;51.418;7.286;2023-07-09T11:27:46;99992.28;;;34.64;30.63
52855;BME280;38719;51.418;7.286;2023-07-09T11:30:20;99985.94;;;34.63;30.34
52855;BME280;38719;51.418;7.286;2023-07-09T11:32:53;99985.94;;;34.63;31.25
52855;BME280;38719;51.418;7.286;2023-07-09T11:35:48;99980.03;;;34.78;30.60
52855;BME280;38719;51.418;7.286;2023-07-09T11:38:18;99973.34;;;34.93;29.77
52855;BME280;38719;51.418;7.286;2023-07-09T11:40:47;99976.66;;;35.01;30.14
52855;BME280;38719;51.418;7.286;2023-07-09T11:43:30;99970.69;;;34.79;29.82
52855;BME280;38719;51.418;7.286;2023-07-09T11:46:05;99967.66;;;34.62;29.68
52855;BME280;38719;51.418;7.286;2023-07-09T11:48:35;99964.44;;;34.65;28.95
52855;BME280;38719;51.418;7.286;2023-07-09T11:51:08;99959.66;;;34.72;29.41
52855;BME280;38719;51.418;7.286;2023-07-09T11:53:41;99972.28;;;34.94;28.52
52855;BME280;38719;51.418;7.286;2023-07-09T11:56:11;99965.38;;;34.78;28.74
52855;BME280;38719;51.418;7.286;2023-07-09T11:58:48;99965.25;;;34.91;28.50
52855;BME280;38719;51.418;7.286;2023-07-09T12:01:18;99968.03;;;34.66;28.50
52855;BME280;38719;51.418;7.286;2023-07-09T12:03:47;99961.69;;;34.84;29.10
52855;BME280;38719;51.418;7.286;2023-07-09T12:06:20;99954.50;;;35.20;29.25
52855;BME280;38719;51.418;7.286;2023-07-09T12:08:50;99955.41;;;35.51;28.89
52855;BME280;38719;51.418;7.286;2023-07-09T12:11:23;99956.63;;;35.55;28.53
52855;BME280;38719;51.418;7.286;2023-07-09T12:13:51;99953.91;;;35.67;29.12
52855;BME280;38719;51.418;7.286;2023-07-09T12:16:24;99953.44;;;35.40;28.93
52855;BME280;38719;51.418;7.286;2023-07-09T12:18:53;99959.47;;;35.79;28.81
52855;BME280;38719;51.418;7.286;2023-07-09T12:21:23;99955.03;;;35.47;29.01
52855;BME280;38719;51.418;7.286;2023-07-09T12:23:52;99951.56;;;35.52;28.59
52855;BME280;38719;51.418;7.286;2023-07-09T12:26:21;99950.44;;;36.02;28.16
52855;BME280;38719;51.418;7.286;2023-07-09T12:28:49;99944.31;;;36.12;27.73
52855;BME280;38719;51.418;7.286;2023-07-09T12:31:18;99950.47;;;36.26;28.06
52855;BME280;38719;51.418;7.286;2023-07-09T12:33:49;99941.41;;;36.07;27.46
52855;BME280;38719;51.418;7.286;2023-07-09T12:36:18;99947.09;;;36.36;27.91
52855;BME280;38719;51.418;7.286;2023-07-09T12:38:49;99942.41;;;36.36;27.12
52855;BME280;38719;51.418;7.286;2023-07-09T12:41:19;99939.25;;;36.09;26.83
52855;BME280;38719;51.418;7.286;2023-07-09T12:43:50;99934.38;;;35.92;27.40
52855;BME280;38719;51.418;7.286;2023-07-09T12:46:20;99930.19;;;34.85;27.93
52855;BME280;38719;51.418;7.286;2023-07-09T12:48:48;99929.97;;;35.24;28.46
52855;BME280;38719;51.418;7.286;2023-07-09T12:51:22;99930.38;;;35.27;28.85
52855;BME280;38719;51.418;7.286;2023-07-09T12:54:00;99921.69;;;35.42;28.76
52855;BME280;38719;51.418;7.286;2023-07-09T12:56:35;99917.25;;;35.34;28.58
52855;BME280;38719;51.418;7.286;2023-07-09T12:59:15;99918.81;;;35.49;28.08
52855;BME280;38719;51.418;7.286;2023-07-09T13:01:48;99925.22;;;35.49;28.27
52855;BME280;38719;51.418;7.286;2023-07-09T13:04:16;99929.81;;;34.63;28.93